sensor_id;sensor_type;location;lat;lon;timestamp;pressure;altitude;pressure_sealevel;temperature;humidity
12358;BME280;6243;51.244;6.774;2022-10-28T00:01:28;154833.66;;;29.09;45.79
12358;BME280;6243;51.244;6.774;2022-10-28T00:03:55;155163.81;;;30.38;43.75
12358;BME280;6243;51.244;6.774;2022-10-28T00:06:22;154788.53;;;28.91;46.52
12358;BME280;6243;51.244;6.774;2022-10-28T00:08:48;155125.09;;;30.23;43.91
12358;BME280;6243;51.244;6.774;2022-10-28T00:11:16;155298.00;;;30.90;42.52
12358;BME280;6243;51.244;6.774;2022-10-28T00:13:43;155100.59;;;30.13;43.51
12358;BME280;6243;51.244;6.774;2022-10-28T00:16:10;155156.13;;;30.35;43.52
12358;BME280;6243;51.244;6.774;2022-10-28T00:18:38;155150.91;;;30.33;43.52
12358;BME280;6243;51.244;6.774;2022-10-28T00:21:06;155043.88;;;29.91;44.29
12358;BME280;6243;51.244;6.774;2022-10-28T00:23:32;155166.41;;;30.39;43.22
12358;BME280;6243;51.244;6.774;2022-10-28T00:26:03;155198.63;;;30.51;42.68
12358;BME280;6243;51.244;6.774;2022-10-28T00:28:29;155094.13;;;30.10;42.84
12358;BME280;6243;51.244;6.774;2022-10-28T00:30:54;154850.41;;;29.15;45.37
12358;BME280;6243;51.244;6.774;2022-10-28T00:33:20;155046.41;;;29.92;43.84
12358;BME280;6243;51.244;6.774;2022-10-28T00:35:47;154900.72;;;29.35;44.51
12358;BME280;6243;51.244;6.774;2022-10-28T00:38:12;154776.94;;;28.87;46.05
12358;BME280;6243;51.244;6.774;2022-10-28T00:40:38;155021.91;;;29.82;43.48
12358;BME280;6243;51.244;6.774;2022-10-28T00:43:03;154935.50;;;29.48;44.34
12358;BME280;6243;51.244;6.774;2022-10-28T00:45:29;155130.25;;;30.25;43.52
12358;BME280;6243;51.244;6.774;2022-10-28T00:47:56;155274.75;;;30.81;42.26
12358;BME280;6243;51.244;6.774;2022-10-28T00:50:42;155163.81;;;30.38;43.19
12358;BME280;6243;51.244;6.774;2022-10-28T00:53:13;154824.63;;;29.05;44.92
12358;BME280;6243;51.244;6.774;2022-10-28T00:55:40;155130.25;;;30.25;42.61
12358;BME280;6243;51.244;6.774;2022-10-28T00:58:07;155039.97;;;29.89;43.51
12358;BME280;6243;51.244;6.774;2022-10-28T01:00:34;154895.56;;;29.33;44.56
12358;BME280;6243;51.244;6.774;2022-10-28T01:03:00;154905.84;;;29.37;44.75
12358;BME280;6243;51.244;6.774;2022-10-28T01:05:26;154945.84;;;29.53;44.36
12358;BME280;6243;51.244;6.774;2022-10-28T01:07:55;154921.34;;;29.43;44.70
12358;BME280;6243;51.244;6.774;2022-10-28T01:10:37;155068.38;;;30.00;43.80
12358;BME280;6243;51.244;6.774;2022-10-28T01:13:12;155254.13;;;30.73;41.91
12358;BME280;6243;51.244;6.774;2022-10-28T01:15:45;155159.97;;;30.36;42.76
12358;BME280;6243;51.244;6.774;2022-10-28T01:18:20;155356.06;;;31.13;41.21
12358;BME280;6243;51.244;6.774;2022-10-28T01:21:10;154971.59;;;29.63;44.10
12358;BME280;6243;51.244;6.774;2022-10-28T01:23:47;154891.72;;;29.31;44.17
12358;BME280;6243;51.244;6.774;2022-10-28T01:26:31;154947.09;;;29.53;43.71
12358;BME280;6243;51.244;6.774;2022-10-28T01:32:16;155456.78;;;31.52;40.55
12358;BME280;6243;51.244;6.774;2022-10-28T01:34:55;155136.69;;;30.27;42.61
12358;BME280;6243;51.244;6.774;2022-10-28T01:37:31;155359.97;;;31.14;41.03
12358;BME280;6243;51.244;6.774;2022-10-28T01:40:04;155094.13;;;30.10;42.84
12358;BME280;6243;51.244;6.774;2022-10-28T01:42:37;155110.88;;;30.17;42.48
12358;BME280;6243;51.244;6.774;2022-10-28T01:45:10;154895.56;;;29.33;44.23
12358;BME280;6243;51.244;6.774;2022-10-28T01:47:42;155002.56;;;29.75;43.73
12358;BME280;6243;51.244;6.774;2022-10-28T01:50:14;155079.97;;;30.05;43.23
12358;BME280;6243;51.244;6.774;2022-10-28T01:52:43;155059.31;;;29.97;42.62
12358;BME280;6243;51.244;6.774;2022-10-28T01:55:13;155350.91;;;31.11;41.01
12358;BME280;6243;51.244;6.774;2022-10-28T01:57:41;155179.31;;;30.44;42.32
12358;BME280;6243;51.244;6.774;2022-10-28T02:00:08;155189.63;;;30.48;42.49
12358;BME280;6243;51.244;6.774;2022-10-28T02:02:36;155058.03;;;29.96;43.71
12358;BME280;6243;51.244;6.774;2022-10-28T02:05:40;154684.13;;;28.50;45.83
12358;BME280;6243;51.244;6.774;2022-10-28T02:11:10;155225.75;;;30.62;42.07
12358;BME280;6243;51.244;6.774;2022-10-28T02:13:48;155359.97;;;31.14;41.26
12358;BME280;6243;51.244;6.774;2022-10-28T02:16:21;155312.22;;;30.96;41.27
12358;BME280;6243;51.244;6.774;2022-10-28T02:18:55;155272.19;;;30.80;41.17
12358;BME280;6243;51.244;6.774;2022-10-28T02:21:32;155143.16;;;30.30;42.65
12358;BME280;6243;51.244;6.774;2022-10-28T02:24:06;155121.25;;;30.21;42.49
12358;BME280;6243;51.244;6.774;2022-10-28T02:26:35;155210.25;;;30.56;42.32
12358;BME280;6243;51.244;6.774;2022-10-28T02:29:04;154871.06;;;29.23;44.36
12358;BME280;6243;51.244;6.774;2022-10-28T02:31:35;155054.16;;;29.95;42.69
12358;BME280;6243;51.244;6.774;2022-10-28T02:34:07;154859.47;;;29.19;44.35
12358;BME280;6243;51.244;6.774;2022-10-28T02:36:39;155171.56;;;30.41;42.43
12358;BME280;6243;51.244;6.774;2022-10-28T02:39:06;155343.22;;;31.08;40.57
12358;BME280;6243;51.244;6.774;2022-10-28T02:41:36;155193.50;;;30.49;42.24
12358;BME280;6243;51.244;6.774;2022-10-28T02:44:06;155216.69;;;30.58;41.88
12358;BME280;6243;51.244;6.774;2022-10-28T02:46:32;155034.81;;;29.87;43.31
12358;BME280;6243;51.244;6.774;2022-10-28T02:49:01;155130.25;;;30.25;42.33
12358;BME280;6243;51.244;6.774;2022-10-28T02:51:31;155033.56;;;29.87;43.08
12358;BME280;6243;51.244;6.774;2022-10-28T02:54:04;155163.81;;;30.38;42.20
12358;BME280;6243;51.244;6.774;2022-10-28T02:56:34;155138.00;;;30.28;41.96
12358;BME280;6243;51.244;6.774;2022-10-28T02:59:01;154993.50;;;29.71;43.75
12358;BME280;6243;51.244;6.774;2022-10-28T03:01:27;155174.13;;;30.42;41.81
12358;BME280;6243;51.244;6.774;2022-10-28T03:03:52;155101.88;;;30.13;42.99
12358;BME280;6243;51.244;6.774;2022-10-28T03:06:18;154880.13;;;29.27;44.44
12358;BME280;6243;51.244;6.774;2022-10-28T03:08:43;154967.75;;;29.61;43.69
12358;BME280;6243;51.244;6.774;2022-10-28T03:11:10;155063.19;;;29.98;43.06
12358;BME280;6243;51.244;6.774;2022-10-28T03:13:35;155119.94;;;30.21;42.87
12358;BME280;6243;51.244;6.774;2022-10-28T03:16:01;155007.75;;;29.77;43.41
12358;BME280;6243;51.244;6.774;2022-10-28T03:18:26;155091.59;;;30.09;42.08
12358;BME280;6243;51.244;6.774;2022-10-28T03:20:52;154951.00;;;29.55;43.17
12358;BME280;6243;51.244;6.774;2022-10-28T03:23:17;154922.59;;;29.43;43.79
12358;BME280;6243;51.244;6.774;2022-10-28T03:25:43;155034.81;;;29.87;42.78
12358;BME280;6243;51.244;6.774;2022-10-28T03:28:10;154874.97;;;29.25;44.51
12358;BME280;6243;51.244;6.774;2022-10-28T03:30:35;155096.72;;;30.11;42.34
12358;BME280;6243;51.244;6.774;2022-10-28T03:33:01;155143.16;;;30.30;41.93
12358;BME280;6243;51.244;6.774;2022-10-28T03:35:26;154905.84;;;29.37;43.36
12358;BME280;6243;51.244;6.774;2022-10-28T03:37:52;154943.25;;;29.52;43.90
12358;BME280;6243;51.244;6.774;2022-10-28T03:40:17;155147.00;;;30.31;41.99
12358;BME280;6243;51.244;6.774;2022-10-28T03:42:42;155003.91;;;29.75;42.51
12358;BME280;6243;51.244;6.774;2022-10-28T03:45:10;155043.88;;;29.91;42.82
12358;BME280;6243;51.244;6.774;2022-10-28T03:47:35;154931.66;;;29.47;43.44
12358;BME280;6243;51.244;6.774;2022-10-28T03:50:01;154760.19;;;28.80;44.81
12358;BME280;6243;51.244;6.774;2022-10-28T03:52:26;154833.66;;;29.09;44.16
12358;BME280;6243;51.244;6.774;2022-10-28T03:54:52;154783.38;;;28.89;45.37
12358;BME280;6243;51.244;6.774;2022-10-28T03:57:17;154916.22;;;29.41;43.12
12358;BME280;6243;51.244;6.774;2022-10-28T03:59:43;154979.34;;;29.66;43.97
12358;BME280;6243;51.244;6.774;2022-10-28T04:02:10;155128.94;;;30.24;42.70
12358;BME280;6243;51.244;6.774;2022-10-28T04:04:35;155099.28;;;30.12;42.22
12358;BME280;6243;51.244;6.774;2022-10-28T04:07:01;155125.09;;;30.23;41.92
12358;BME280;6243;51.244;6.774;2022-10-28T04:09:26;154998.66;;;29.73;43.10
12358;BME280;6243;51.244;6.774;2022-10-28T04:11:52;155166.41;;;30.39;41.75
12358;BME280;6243;51.244;6.774;2022-10-28T04:14:17;155024.50;;;29.83;42.13
12358;BME280;6243;51.244;6.774;2022-10-28T04:16:43;154918.75;;;29.42;43.38
12358;BME280;6243;51.244;6.774;2022-10-28T04:19:09;154960.00;;;29.58;43.54
12358;BME280;6243;51.244;6.774;2022-10-28T04:21:36;154891.72;;;29.31;43.39
12358;BME280;6243;51.244;6.774;2022-10-28T04:24:01;155051.56;;;29.94;42.93
12358;BME280;6243;51.244;6.774;2022-10-28T04:26:26;155130.25;;;30.25;41.91
12358;BME280;6243;51.244;6.774;2022-10-28T04:28:52;154887.81;;;29.30;43.30
12358;BME280;6243;51.244;6.774;2022-10-28T04:31:17;154914.91;;;29.40;43.65
12358;BME280;6243;51.244;6.774;2022-10-28T04:33:43;154931.66;;;29.47;43.08
12358;BME280;6243;51.244;6.774;2022-10-28T04:36:10;155205.09;;;30.54;41.19
12358;BME280;6243;51.244;6.774;2022-10-28T04:38:35;154874.97;;;29.25;43.55
12358;BME280;6243;51.244;6.774;2022-10-28T04:41:01;154918.75;;;29.42;43.75
12358;BME280;6243;51.244;6.774;2022-10-28T04:43:27;155072.22;;;30.02;42.42
12358;BME280;6243;51.244;6.774;2022-10-28T04:45:52;154896.84;;;29.33;43.44
12358;BME280;6243;51.244;6.774;2022-10-28T04:48:18;154793.75;;;28.93;44.20
12358;BME280;6243;51.244;6.774;2022-10-28T04:50:44;154944.56;;;29.52;43.12
12358;BME280;6243;51.244;6.774;2022-10-28T04:53:11;154969.06;;;29.62;43.13
12358;BME280;6243;51.244;6.774;2022-10-28T04:55:37;155152.22;;;30.33;41.92
12358;BME280;6243;51.244;6.774;2022-10-28T04:58:03;155027.13;;;29.84;42.24
12358;BME280;6243;51.244;6.774;2022-10-28T05:00:29;154956.16;;;29.57;42.79
12358;BME280;6243;51.244;6.774;2022-10-28T05:02:55;154960.00;;;29.58;43.32
12358;BME280;6243;51.244;6.774;2022-10-28T05:05:20;154952.25;;;29.55;42.80
12358;BME280;6243;51.244;6.774;2022-10-28T05:07:46;154978.06;;;29.65;43.35
12358;BME280;6243;51.244;6.774;2022-10-28T05:10:13;155095.44;;;30.11;42.37
12358;BME280;6243;51.244;6.774;2022-10-28T05:12:40;155134.09;;;30.26;42.22
12358;BME280;6243;51.244;6.774;2022-10-28T05:15:07;155113.50;;;30.18;42.38
12358;BME280;6243;51.244;6.774;2022-10-28T05:17:33;155175.44;;;30.42;41.48
12358;BME280;6243;51.244;6.774;2022-10-28T05:19:58;154925.22;;;29.44;43.23
12358;BME280;6243;51.244;6.774;2022-10-28T05:22:23;155029.66;;;29.85;43.00
12358;BME280;6243;51.244;6.774;2022-10-28T05:24:49;155127.66;;;30.24;41.65
12358;BME280;6243;51.244;6.774;2022-10-28T05:27:16;154902.00;;;29.35;43.46
12358;BME280;6243;51.244;6.774;2022-10-28T05:29:41;155117.34;;;30.19;41.76
12358;BME280;6243;51.244;6.774;2022-10-28T05:32:07;154887.81;;;29.30;43.22
12358;BME280;6243;51.244;6.774;2022-10-28T05:34:32;155082.53;;;30.06;42.24
12358;BME280;6243;51.244;6.774;2022-10-28T05:36:58;154829.78;;;29.07;43.72
12358;BME280;6243;51.244;6.774;2022-10-28T05:39:23;154864.63;;;29.21;43.39
12358;BME280;6243;51.244;6.774;2022-10-28T05:41:49;155219.31;;;30.59;41.44
12358;BME280;6243;51.244;6.774;2022-10-28T05:44:15;154913.59;;;29.40;42.98
12358;BME280;6243;51.244;6.774;2022-10-28T05:46:41;155128.94;;;30.24;41.88
12358;BME280;6243;51.244;6.774;2022-10-28T05:49:06;154654.50;;;28.39;44.87
12358;BME280;6243;51.244;6.774;2022-10-28T05:51:32;155001.25;;;29.74;42.47
12358;BME280;6243;51.244;6.774;2022-10-28T05:53:57;155016.75;;;29.80;42.11
12358;BME280;6243;51.244;6.774;2022-10-28T05:56:23;155005.16;;;29.76;42.10
12358;BME280;6243;51.244;6.774;2022-10-28T05:58:48;154957.47;;;29.57;42.49
12358;BME280;6243;51.244;6.774;2022-10-28T06:01:15;155096.72;;;30.11;41.91
12358;BME280;6243;51.244;6.774;2022-10-28T06:03:41;155199.94;;;30.52;41.41
12358;BME280;6243;51.244;6.774;2022-10-28T06:06:06;155036.13;;;29.88;41.96
12358;BME280;6243;51.244;6.774;2022-10-28T06:08:32;155011.63;;;29.78;42.26
12358;BME280;6243;51.244;6.774;2022-10-28T06:10:57;155170.28;;;30.40;41.85
12358;BME280;6243;51.244;6.774;2022-10-28T06:13:23;154832.38;;;29.08;43.42
12358;BME280;6243;51.244;6.774;2022-10-28T06:15:52;154862.06;;;29.20;44.04
12358;BME280;6243;51.244;6.774;2022-10-28T06:18:19;155121.25;;;30.21;41.65
12358;BME280;6243;51.244;6.774;2022-10-28T06:20:50;154798.88;;;28.95;43.74
12358;BME280;6243;51.244;6.774;2022-10-28T06:23:16;154851.72;;;29.16;43.72
12358;BME280;6243;51.244;6.774;2022-10-28T06:25:41;154682.88;;;28.50;44.34
12358;BME280;6243;51.244;6.774;2022-10-28T06:28:07;154916.22;;;29.41;43.13
12358;BME280;6243;51.244;6.774;2022-10-28T06:30:32;154988.38;;;29.69;42.63
12358;BME280;6243;51.244;6.774;2022-10-28T06:32:58;154873.66;;;29.24;43.10
12358;BME280;6243;51.244;6.774;2022-10-28T06:35:25;154887.81;;;29.30;43.38
12358;BME280;6243;51.244;6.774;2022-10-28T06:37:52;154980.66;;;29.66;42.14
12358;BME280;6243;51.244;6.774;2022-10-28T06:40:18;154800.13;;;28.96;44.55
12358;BME280;6243;51.244;6.774;2022-10-28T06:42:43;154776.94;;;28.87;45.00
12358;BME280;6243;51.244;6.774;2022-10-28T06:45:09;154880.13;;;29.27;43.51
12358;BME280;6243;51.244;6.774;2022-10-28T06:47:34;154631.31;;;28.30;45.16
12358;BME280;6243;51.244;6.774;2022-10-28T06:50:00;154963.84;;;29.60;42.90
12358;BME280;6243;51.244;6.774;2022-10-28T06:52:27;155279.91;;;30.83;40.76
12358;BME280;6243;51.244;6.774;2022-10-28T06:54:53;155099.28;;;30.12;41.31
12358;BME280;6243;51.244;6.774;2022-10-28T06:57:18;155156.13;;;30.35;41.45
12358;BME280;6243;51.244;6.774;2022-10-28T06:59:44;154988.38;;;29.69;42.89
12358;BME280;6243;51.244;6.774;2022-10-28T07:02:10;154974.22;;;29.64;42.60
12358;BME280;6243;51.244;6.774;2022-10-28T07:04:35;154693.19;;;28.54;44.79
12358;BME280;6243;51.244;6.774;2022-10-28T07:07:01;155156.13;;;30.35;41.34
12358;BME280;6243;51.244;6.774;2022-10-28T07:09:28;155295.47;;;30.89;41.18
12358;BME280;6243;51.244;6.774;2022-10-28T07:11:53;155107.03;;;30.15;41.82
12358;BME280;6243;51.244;6.774;2022-10-28T07:14:19;155190.94;;;30.48;41.73
12358;BME280;6243;51.244;6.774;2022-10-28T07:16:44;155349.63;;;31.10;39.89
12358;BME280;6243;51.244;6.774;2022-10-28T07:19:10;155246.38;;;30.70;40.31
12358;BME280;6243;51.244;6.774;2022-10-28T07:21:35;155290.25;;;30.87;40.40
12358;BME280;6243;51.244;6.774;2022-10-28T07:24:01;155174.13;;;30.42;41.61
12358;BME280;6243;51.244;6.774;2022-10-28T07:26:28;155411.59;;;31.34;39.61
12358;BME280;6243;51.244;6.774;2022-10-28T07:28:54;155338.00;;;31.06;40.05
12358;BME280;6243;51.244;6.774;2022-10-28T07:31:19;155378.03;;;31.21;40.00
12358;BME280;6243;51.244;6.774;2022-10-28T07:33:50;155323.84;;;31.00;40.04
12358;BME280;6243;51.244;6.774;2022-10-28T07:36:16;155451.63;;;31.50;39.30
12358;BME280;6243;51.244;6.774;2022-10-28T07:38:41;155451.63;;;31.50;39.52
12358;BME280;6243;51.244;6.774;2022-10-28T07:41:08;155170.28;;;30.40;41.00
12358;BME280;6243;51.244;6.774;2022-10-28T07:43:36;155261.84;;;30.76;40.87
12358;BME280;6243;51.244;6.774;2022-10-28T07:46:02;155221.84;;;30.60;41.30
12358;BME280;6243;51.244;6.774;2022-10-28T07:48:28;155241.22;;;30.68;40.40
12358;BME280;6243;51.244;6.774;2022-10-28T07:50:53;155491.63;;;31.66;39.37
12358;BME280;6243;51.244;6.774;2022-10-28T07:53:19;155349.63;;;31.10;39.95
12358;BME280;6243;51.244;6.774;2022-10-28T07:55:52;154849.13;;;29.15;43.17
12358;BME280;6243;51.244;6.774;2022-10-28T07:58:18;155100.59;;;30.13;41.79
12358;BME280;6243;51.244;6.774;2022-10-28T08:00:45;155321.25;;;30.99;40.88
12358;BME280;6243;51.244;6.774;2022-10-28T08:03:11;155091.59;;;30.09;41.92
12358;BME280;6243;51.244;6.774;2022-10-28T08:05:36;155339.31;;;31.06;40.87
12358;BME280;6243;51.244;6.774;2022-10-28T08:08:02;155086.38;;;30.07;41.56
12358;BME280;6243;51.244;6.774;2022-10-28T08:10:27;155243.81;;;30.69;40.77
12358;BME280;6243;51.244;6.774;2022-10-28T08:12:55;155241.22;;;30.68;41.07
12358;BME280;6243;51.244;6.774;2022-10-28T08:15:20;155540.72;;;31.85;38.68
12358;BME280;6243;51.244;6.774;2022-10-28T08:17:51;155418.03;;;31.37;39.27
12358;BME280;6243;51.244;6.774;2022-10-28T08:20:16;155036.13;;;29.88;41.94
12358;BME280;6243;51.244;6.774;2022-10-28T08:22:42;155236.06;;;30.66;40.95
12358;BME280;6243;51.244;6.774;2022-10-28T08:25:08;155225.75;;;30.62;40.71
12358;BME280;6243;51.244;6.774;2022-10-28T08:27:34;155290.25;;;30.87;40.33
12358;BME280;6243;51.244;6.774;2022-10-28T08:29:59;155011.63;;;29.78;42.29
12358;BME280;6243;51.244;6.774;2022-10-28T08:32:25;155264.44;;;30.77;40.79
12358;BME280;6243;51.244;6.774;2022-10-28T08:34:52;154886.56;;;29.29;43.07
12358;BME280;6243;51.244;6.774;2022-10-28T08:37:17;155116.03;;;30.19;41.58
12358;BME280;6243;51.244;6.774;2022-10-28T08:39:43;155543.25;;;31.86;39.17
12358;BME280;6243;51.244;6.774;2022-10-28T08:42:24;155560.03;;;31.92;38.69
12358;BME280;6243;51.244;6.774;2022-10-28T08:47:52;155755.13;;;32.68;37.75
12358;BME280;6243;51.244;6.774;2022-10-28T08:50:22;155336.75;;;31.05;39.71
12358;BME280;6243;51.244;6.774;2022-10-28T08:52:52;155733.19;;;32.60;37.08
12358;BME280;6243;51.244;6.774;2022-10-28T08:55:20;155989.06;;;33.59;35.85
12358;BME280;6243;51.244;6.774;2022-10-28T08:57:52;155889.50;;;33.21;36.87
12358;BME280;6243;51.244;6.774;2022-10-28T09:00:21;155868.88;;;33.13;36.59
12358;BME280;6243;51.244;6.774;2022-10-28T09:02:56;156336.94;;;34.95;34.76
12358;BME280;6243;51.244;6.774;2022-10-28T09:05:27;155783.53;;;32.79;36.82
12358;BME280;6243;51.244;6.774;2022-10-28T09:07:53;155562.63;;;31.93;38.38
12358;BME280;6243;51.244;6.774;2022-10-28T09:10:39;156027.84;;;33.75;35.32
12358;BME280;6243;51.244;6.774;2022-10-28T09:13:14;155916.69;;;33.31;36.33
12358;BME280;6243;51.244;6.774;2022-10-28T09:15:47;155945.09;;;33.42;36.08
12358;BME280;6243;51.244;6.774;2022-10-28T09:18:18;155534.25;;;31.82;38.20
12358;BME280;6243;51.244;6.774;2022-10-28T09:20:51;156020.09;;;33.72;35.81
12358;BME280;6243;51.244;6.774;2022-10-28T09:23:21;155952.81;;;33.45;35.78
12358;BME280;6243;51.244;6.774;2022-10-28T09:25:55;155921.84;;;33.33;35.93
12358;BME280;6243;51.244;6.774;2022-10-28T09:28:32;156184.28;;;34.36;34.46
12358;BME280;6243;51.244;6.774;2022-10-28T09:31:06;156276.13;;;34.71;34.51
12358;BME280;6243;51.244;6.774;2022-10-28T09:33:52;155946.34;;;33.43;35.25
12358;BME280;6243;51.244;6.774;2022-10-28T09:36:26;155606.59;;;32.10;37.44
12358;BME280;6243;51.244;6.774;2022-10-28T09:38:55;156029.09;;;33.75;35.48
12358;BME280;6243;51.244;6.774;2022-10-28T09:41:23;155712.50;;;32.52;36.92
12358;BME280;6243;51.244;6.774;2022-10-28T09:43:54;155545.84;;;31.87;37.72
12358;BME280;6243;51.244;6.774;2022-10-28T09:46:23;155898.59;;;33.24;35.46
12358;BME280;6243;51.244;6.774;2022-10-28T09:48:52;156387.41;;;35.15;33.83
12358;BME280;6243;51.244;6.774;2022-10-28T09:51:27;156287.75;;;34.76;33.47
12358;BME280;6243;51.244;6.774;2022-10-28T09:53:56;156254.16;;;34.63;33.87
12358;BME280;6243;51.244;6.774;2022-10-28T09:56:23;156858.69;;;36.98;31.53
12358;BME280;6243;51.244;6.774;2022-10-28T09:58:49;156779.63;;;36.67;31.89
12358;BME280;6243;51.244;6.774;2022-10-28T10:01:16;156276.13;;;34.71;33.89
12358;BME280;6243;51.244;6.774;2022-10-28T10:03:43;156018.78;;;33.71;34.64
12358;BME280;6243;51.244;6.774;2022-10-28T10:06:12;156132.59;;;34.15;34.66
12358;BME280;6243;51.244;6.774;2022-10-28T10:08:40;156069.22;;;33.91;35.03
12358;BME280;6243;51.244;6.774;2022-10-28T10:11:12;156500.00;;;35.58;33.29
12358;BME280;6243;51.244;6.774;2022-10-28T10:13:42;156804.25;;;36.77;31.88
12358;BME280;6243;51.244;6.774;2022-10-28T10:16:13;156581.50;;;35.90;32.56
12358;BME280;6243;51.244;6.774;2022-10-28T10:18:44;156122.22;;;34.11;34.22
12358;BME280;6243;51.244;6.774;2022-10-28T10:21:11;156225.72;;;34.52;33.99
12358;BME280;6243;51.244;6.774;2022-10-28T10:23:37;156590.59;;;35.94;32.28
12358;BME280;6243;51.244;6.774;2022-10-28T10:26:07;156386.09;;;35.14;32.80
12358;BME280;6243;51.244;6.774;2022-10-28T10:28:35;156705.81;;;36.39;31.35
12358;BME280;6243;51.244;6.774;2022-10-28T10:31:04;156650.13;;;36.17;32.61
12358;BME280;6243;51.244;6.774;2022-10-28T10:33:33;156463.72;;;35.44;33.49
12358;BME280;6243;51.244;6.774;2022-10-28T10:36:01;156364.13;;;35.06;33.20
12358;BME280;6243;51.244;6.774;2022-10-28T10:38:28;157229.28;;;38.42;29.44
12358;BME280;6243;51.244;6.774;2022-10-28T10:40:55;157121.69;;;38.00;29.52
12358;BME280;6243;51.244;6.774;2022-10-28T10:43:28;157613.13;;;39.91;27.71
12358;BME280;6243;51.244;6.774;2022-10-28T10:46:00;157227.97;;;38.42;29.39
12358;BME280;6243;51.244;6.774;2022-10-28T10:48:26;157552.22;;;39.67;27.63
12358;BME280;6243;51.244;6.774;2022-10-28T10:50:52;157270.75;;;38.58;28.91
12358;BME280;6243;51.244;6.774;2022-10-28T10:53:22;156925.97;;;37.24;31.21
12358;BME280;6243;51.244;6.774;2022-10-28T10:55:49;157416.00;;;39.15;28.62
12358;BME280;6243;51.244;6.774;2022-10-28T10:58:19;157858.47;;;40.86;27.38
12358;BME280;6243;51.244;6.774;2022-10-28T11:00:48;157866.22;;;40.89;27.13
12358;BME280;6243;51.244;6.774;2022-10-28T11:03:19;158159.69;;;42.03;26.17
12358;BME280;6243;51.244;6.774;2022-10-28T11:05:51;158038.91;;;41.56;26.03
12358;BME280;6243;51.244;6.774;2022-10-28T11:08:30;158029.84;;;41.53;26.48
12358;BME280;6243;51.244;6.774;2022-10-28T11:11:10;158357.16;;;42.80;25.20
12358;BME280;6243;51.244;6.774;2022-10-28T11:13:36;158409.16;;;43.00;24.87
12358;BME280;6243;51.244;6.774;2022-10-28T11:16:05;158861.56;;;44.75;23.32
12358;BME280;6243;51.244;6.774;2022-10-28T11:18:39;158541.72;;;43.51;24.14
12358;BME280;6243;51.244;6.774;2022-10-28T11:21:13;157915.56;;;41.09;26.27
12358;BME280;6243;51.244;6.774;2022-10-28T11:23:46;158170.06;;;42.07;24.90
12358;BME280;6243;51.244;6.774;2022-10-28T11:26:18;158258.41;;;42.42;25.39
12358;BME280;6243;51.244;6.774;2022-10-28T11:28:55;157610.56;;;39.90;27.83
12358;BME280;6243;51.244;6.774;2022-10-28T11:31:42;156865.16;;;37.01;31.23
12358;BME280;6243;51.244;6.774;2022-10-28T11:34:23;157243.53;;;38.48;29.88
12358;BME280;6243;51.244;6.774;2022-10-28T11:36:58;157103.53;;;37.93;30.58
12358;BME280;6243;51.244;6.774;2022-10-28T11:39:32;156644.97;;;36.15;32.54
12358;BME280;6243;51.244;6.774;2022-10-28T11:42:07;156749.84;;;36.56;32.49
12358;BME280;6243;51.244;6.774;2022-10-28T11:44:44;156049.81;;;33.83;36.38
12358;BME280;6243;51.244;6.774;2022-10-28T11:47:37;156106.72;;;34.05;36.49
12358;BME280;6243;51.244;6.774;2022-10-28T11:50:23;155998.13;;;33.63;37.04
12358;BME280;6243;51.244;6.774;2022-10-28T11:53:11;156219.19;;;34.49;35.91
12358;BME280;6243;51.244;6.774;2022-10-28T11:55:46;156564.69;;;35.84;33.68
12358;BME280;6243;51.244;6.774;2022-10-28T11:58:26;156329.16;;;34.92;35.32
12358;BME280;6243;51.244;6.774;2022-10-28T12:04:07;156555.66;;;35.80;33.95
12358;BME280;6243;51.244;6.774;2022-10-28T12:06:56;156238.66;;;34.57;35.66
12358;BME280;6243;51.244;6.774;2022-10-28T12:09:32;156241.22;;;34.58;35.19
12358;BME280;6243;51.244;6.774;2022-10-28T12:12:12;156272.28;;;34.70;35.41
12358;BME280;6243;51.244;6.774;2022-10-28T12:14:45;156229.59;;;34.53;35.76
12358;BME280;6243;51.244;6.774;2022-10-28T12:17:16;156476.72;;;35.49;34.55
12358;BME280;6243;51.244;6.774;2022-10-28T12:19:48;156437.88;;;35.34;34.76
12358;BME280;6243;51.244;6.774;2022-10-28T12:22:20;156299.41;;;34.80;35.52
12358;BME280;6243;51.244;6.774;2022-10-28T12:24:48;156261.94;;;34.66;35.52
12358;BME280;6243;51.244;6.774;2022-10-28T12:27:21;156497.41;;;35.57;34.04
12358;BME280;6243;51.244;6.774;2022-10-28T12:29:50;156673.44;;;36.26;33.88
12358;BME280;6243;51.244;6.774;2022-10-28T12:32:20;156523.28;;;35.68;34.57
12358;BME280;6243;51.244;6.774;2022-10-28T12:34:51;156086.00;;;33.97;36.54
12358;BME280;6243;51.244;6.774;2022-10-28T12:37:21;156277.44;;;34.72;35.81
12358;BME280;6243;51.244;6.774;2022-10-28T12:39:53;156470.19;;;35.47;34.60
12358;BME280;6243;51.244;6.774;2022-10-28T12:42:23;156368.03;;;35.07;35.02
12358;BME280;6243;51.244;6.774;2022-10-28T12:44:56;156642.41;;;36.14;34.01
12358;BME280;6243;51.244;6.774;2022-10-28T12:47:26;156795.19;;;36.73;32.89
12358;BME280;6243;51.244;6.774;2022-10-28T12:50:07;156471.50;;;35.47;34.98
12358;BME280;6243;51.244;6.774;2022-10-28T12:52:41;156493.53;;;35.56;34.52
12358;BME280;6243;51.244;6.774;2022-10-28T12:55:20;156437.88;;;35.34;35.19
12358;BME280;6243;51.244;6.774;2022-10-28T12:57:54;156225.72;;;34.52;35.87
12358;BME280;6243;51.244;6.774;2022-10-28T13:00:25;156413.28;;;35.25;35.08
12358;BME280;6243;51.244;6.774;2022-10-28T13:02:58;156670.88;;;36.25;34.12
12358;BME280;6243;51.244;6.774;2022-10-28T13:05:30;156274.81;;;34.71;35.60
12358;BME280;6243;51.244;6.774;2022-10-28T13:08:11;156422.31;;;35.28;35.21
12358;BME280;6243;51.244;6.774;2022-10-28T13:10:45;156267.09;;;34.68;36.10
12358;BME280;6243;51.244;6.774;2022-10-28T13:13:26;156694.16;;;36.34;34.08
12358;BME280;6243;51.244;6.774;2022-10-28T13:16:16;156774.47;;;36.65;33.47
12358;BME280;6243;51.244;6.774;2022-10-28T13:19:00;156632.06;;;36.10;34.37
12358;BME280;6243;51.244;6.774;2022-10-28T13:21:48;156777.06;;;36.66;33.85
12358;BME280;6243;51.244;6.774;2022-10-28T13:24:25;156942.84;;;37.31;33.13